To NAV CANADA Home Page Login to a new session Search on AWWS site Feedback and Comments Disclaimer Vers la page française équivalente Tips FAQ What's new on the site To the Forecasts and Observations / NOTAM section To "File a Flight Plan" website Publications and other links Update of the User's profile FIC Telephone Numbers My Weather Data Folder Route Weather Data Regional Weather Data Local Weather Data To the Forecasts and Observations / NOTAM section
Request Generated 05/25/2017 at 01:14:43 UTC . Weather information available at that time is displayed.

METAR/TAF

SWIFT CURRENT/SK    (show WxCam)

METAR CYYN 250100Z AUTO 26016G21KT 9SM SCT065 BKN078 BKN097 OVC180
12/01 A2923 RMK SLP901 DENSITY ALT 3700FT=
METAR CYYN 250000Z AUTO 28015G20KT 9SM FEW130 BKN150 BKN170 14/00
A2922 RMK SLP895 DENSITY ALT 4000FT=
METAR CYYN 242300Z AUTO 27015G24KT 9SM BKN150 13/M00 A2923 RMK SLP902
DENSITY ALT 3800FT=

TAF CYYN 242338Z 2500/2512 27015G25KT P6SM BKN150
FM250600 24014KT P6SM BKN040
FM251000 24010KT P6SM BKN025 TEMPO 2510/2512 P6SM -SHRA BKN020
RMK FCST BASED ON AUTO OBS. NXT FCST BY 250600Z=
Your time UTC time
Weather data provided by Environment Canada and NAV CANADA